Time;durP1;ratioP1;P1;durP2;ratioP2;P2;SDS_P1;SDS_P2;PMS_P1;PMS_P2;Temp;Humidity;BMP_temperature;BMP_pressure;BME280_temperature;BME280_humidity;BME280_pressure;Samples;Min_cycle;Max_cycle;Signal;HPM_P1;HPM_P2
2022/01/26 00:05:44;;;;;;;53.33;28.95;;;;;;;1.85;77.85;101440.31;1084948;47;20037;-79
2022/01/26 00:06:19;;;;;;;59.78;32.30;;;;;;;1.63;78.26;101446.34;1085439;54;20035;-79
2022/01/26 00:07:21;;;;;;;53.78;29.23;;;;;;;1.66;78.46;101442.72;1085504;54;20044;-79
2022/01/26 00:08:26;;;;;;;50.22;28.90;;;;;;;1.69;78.23;101448.78;1085368;54;20042;-79
2022/01/26 00:09:30;;;;;;;52.03;28.88;;;;;;;1.70;78.24;101439.94;1085657;54;20033;-80
2022/01/26 00:10:33;;;;;;;52.10;28.15;;;;;;;1.73;78.41;101444.25;1086079;46;20554;-78
2022/01/26 00:11:39;;;;;;;50.75;28.30;;;;;;;1.74;78.17;101446.00;1085721;54;20042;-78
2022/01/26 00:12:40;;;;;;;50.00;27.63;;;;;;;1.77;78.03;101439.75;1085585;54;20042;-78
2022/01/26 00:13:44;;;;;;;50.63;29.55;;;;;;;1.78;78.42;101441.47;1085965;39;20571;-79
2022/01/26 00:14:46;;;;;;;52.22;28.70;;;;;;;1.76;78.28;101443.28;1085472;54;20026;-78
2022/01/26 00:15:50;;;;;;;55.75;30.30;;;;;;;1.65;78.36;101449.78;1085808;54;20034;-78
2022/01/26 00:16:54;;;;;;;51.22;28.58;;;;;;;1.69;78.35;101450.53;1085430;54;20038;-78
2022/01/26 00:17:59;;;;;;;54.10;29.38;;;;;;;1.62;78.53;101444.63;1085456;47;20038;-77
2022/01/26 00:19:04;;;;;;;53.30;30.30;;;;;;;1.76;78.28;101448.56;1085395;54;20034;-78
2022/01/26 00:20:14;;;;;;;50.92;29.58;;;;;;;1.78;78.16;101452.00;1085587;39;20449;-78
2022/01/26 00:21:27;;;;;;;53.22;29.17;;;;;;;1.74;77.91;101443.34;1085447;54;20038;-78
2022/01/26 00:22:42;;;;;;;54.55;29.98;;;;;;;1.80;77.94;101450.16;1087161;54;20072;-78
2022/01/26 00:25:21;;;;;;;48.55;26.90;;;;;;;1.84;78.07;101443.88;1087788;54;20037;-78
2022/01/26 00:26:29;;;;;;;49.35;25.55;;;;;;;1.82;77.77;101445.69;1086439;54;20062;-77
2022/01/26 00:27:48;;;;;;;46.63;25.90;;;;;;;1.86;77.82;101444.69;1086462;54;20106;-79
2022/01/26 00:29:07;;;;;;;48.03;26.60;;;;;;;1.86;77.90;101437.63;1088123;46;20031;-78
2022/01/26 00:39:10;;;;;;;53.10;30.25;;;;;;;1.74;77.50;101431.94;1086618;39;20485;-79
2022/01/26 00:40:21;;;;;;;48.97;27.58;;;;;;;1.77;77.81;101429.19;1085883;54;20551;-78
2022/01/26 00:41:33;;;;;;;50.92;28.50;;;;;;;1.70;77.60;101432.03;1085928;54;20030;-77
2022/01/26 00:42:40;;;;;;;49.85;27.67;;;;;;;1.72;77.67;101432.00;1085967;39;20349;-77
2022/01/26 00:43:47;;;;;;;51.58;28.42;;;;;;;1.71;77.87;101425.84;1085777;54;20054;-79
2022/01/26 00:44:51;;;;;;;48.13;26.23;;;;;;;1.73;77.95;101423.16;1085190;54;20038;-78
2022/01/26 00:45:59;;;;;;;54.80;31.30;;;;;;;1.64;77.93;101432.25;1085227;46;20053;-78
2022/01/26 00:47:00;;;;;;;55.20;31.20;;;;;;;1.64;78.40;101429.63;1085269;54;20049;-77
2022/01/26 00:48:09;;;;;;;52.65;29.15;;;;;;;1.66;78.27;101419.00;1085259;54;20065;-78
2022/01/26 00:49:15;;;;;;;65.25;34.95;;;;;;;1.57;78.52;101430.75;1085045;54;20073;-78
2022/01/26 00:50:20;;;;;;;64.18;33.00;;;;;;;1.63;78.19;101419.97;1085157;39;20746;-78
2022/01/26 00:51:25;;;;;;;54.63;29.40;;;;;;;1.69;78.12;101426.81;1085054;54;20560;-78
2022/01/26 00:52:37;;;;;;;54.30;29.08;;;;;;;1.74;78.26;101424.00;1085003;54;20038;-78
2022/01/26 00:53:45;;;;;;;52.00;29.30;;;;;;;1.76;78.23;101422.19;1085034;54;20062;-77
2022/01/26 00:54:46;;;;;;;47.70;26.35;;;;;;;1.81;78.00;101422.88;1084953;54;20038;-80
2022/01/26 00:55:50;;;;;;;53.08;29.23;;;;;;;1.74;78.20;101424.00;1085408;54;20042;-78
2022/01/26 00:56:52;;;;;;;54.65;29.50;;;;;;;1.71;78.03;101423.19;1085403;54;20034;-78
2022/01/26 00:57:56;;;;;;;51.70;28.30;;;;;;;1.75;78.18;101420.47;1085131;54;20042;-78
2022/01/26 00:58:58;;;;;;;51.10;28.13;;;;;;;1.82;77.87;101421.97;1085362;54;20061;-79
2022/01/26 01:00:02;;;;;;;54.72;30.17;;;;;;;1.76;78.10;101425.69;1085260;54;20058;-78
2022/01/26 01:01:05;;;;;;;59.35;31.70;;;;;;;1.72;78.16;101424.09;1085231;54;20043;-78
2022/01/26 01:02:09;;;;;;;52.35;29.42;;;;;;;1.76;78.40;101422.19;1085297;54;20033;-78
2022/01/26 01:03:13;;;;;;;57.92;29.80;;;;;;;1.78;78.08;101430.91;1084655;54;20042;-79
2022/01/26 01:04:17;;;;;;;60.20;32.08;;;;;;;1.66;78.03;101426.91;1085298;54;20031;-78
2022/01/26 01:05:27;;;;;;;57.70;33.75;;;;;;;1.70;78.14;101431.19;1085909;39;20257;-78
2022/01/26 01:06:33;;;;;;;56.20;30.35;;;;;;;1.74;78.21;101440.72;1085438;54;20046;-78
2022/01/26 01:07:39;;;;;;;53.65;30.25;;;;;;;1.76;78.15;101430.09;1085213;54;20045;-78
2022/01/26 01:08:41;;;;;;;58.20;30.83;;;;;;;1.78;78.11;101428.28;1085384;54;20106;-79
2022/01/26 01:09:46;;;;;;;54.45;29.77;;;;;;;1.76;77.91;101436.22;1085307;54;20058;-78
2022/01/26 01:10:50;;;;;;;60.83;32.35;;;;;;;1.67;78.39;101434.78;1084844;54;20039;-78
2022/01/26 01:11:56;;;;;;;57.13;31.00;;;;;;;1.66;78.62;101440.09;1085304;54;20038;-79
2022/01/26 01:12:59;;;;;;;58.33;31.13;;;;;;;1.74;78.39;101440.72;1085147;54;20082;-78
2022/01/26 01:14:03;;;;;;;58.78;30.30;;;;;;;1.74;78.33;101439.84;1085350;54;20070;-78
2022/01/26 01:15:07;;;;;;;60.53;30.50;;;;;;;1.72;78.35;101445.19;1085314;54;20033;-79
2022/01/26 01:16:16;;;;;;;56.30;31.25;;;;;;;1.64;78.37;101445.44;1085392;54;20034;-79
2022/01/26 01:17:23;;;;;;;62.80;33.45;;;;;;;1.54;78.67;101441.38;1085230;54;20042;-78
2022/01/26 01:18:34;;;;;;;57.00;30.70;;;;;;;1.66;78.56;101443.59;1085227;54;20561;-79
2022/01/26 01:19:43;;;;;;;;;;;;;;;1.66;78.42;101443.59;1085429;54;20050;-79
2022/01/26 01:21:11;;;;;;;53.00;27.70;;;;;;;1.73;78.17;101443.38;1086075;39;20392;-79
2022/01/26 01:22:40;;;;;;;62.65;30.48;;;;;;;1.67;78.28;101445.34;1085690;54;20038;-79
2022/01/26 01:26:46;;;;;;;57.03;30.00;;;;;;;1.69;78.12;101438.25;1086073;54;20042;-79
2022/01/26 01:28:11;;;;;;;56.40;31.17;;;;;;;1.61;78.13;101434.97;1085881;54;20110;-78
2022/01/26 01:29:21;;;;;;;65.47;34.40;;;;;;;1.41;78.85;101438.31;1086130;54;20061;-78
2022/01/26 01:30:33;;;;;;;71.00;37.28;;;;;;;1.26;79.51;101444.94;1085895;54;20086;-79
2022/01/26 01:31:45;;;;;;;73.72;38.70;;;;;;;1.22;79.85;101443.34;1086153;54;20050;-78
2022/01/26 01:32:52;;;;;;;66.47;34.42;;;;;;;1.23;79.69;101445.03;1085927;54;20065;-78
2022/01/26 01:33:57;;;;;;;61.75;32.33;;;;;;;1.41;79.43;101440.94;1085917;54;20041;-79
2022/01/26 01:35:01;;;;;;;58.28;32.15;;;;;;;1.36;79.27;101441.09;1086134;47;20568;-78
2022/01/26 01:36:06;;;;;;;64.90;33.15;;;;;;;1.22;79.58;101435.44;1085962;54;20118;-79
2022/01/26 01:37:10;;;;;;;67.53;35.45;;;;;;;1.09;80.03;101443.72;1087037;39;20567;-79
2022/01/26 01:38:16;;;;;;;60.63;34.13;;;;;;;1.22;80.03;101440.72;1085791;54;20038;-78
2022/01/26 01:39:18;;;;;;;62.63;32.10;;;;;;;1.34;79.34;101442.06;1086637;47;20544;-79
2022/01/26 01:40:23;;;;;;;55.55;29.63;;;;;;;1.50;78.97;101442.41;1086057;54;20659;-79
2022/01/26 01:41:24;;;;;;;54.42;29.77;;;;;;;1.53;78.84;101437.91;1085880;54;20027;-79
2022/01/26 01:42:30;;;;;;;53.92;28.70;;;;;;;1.56;78.60;101435.13;1086207;47;20125;-79
2022/01/26 01:43:32;;;;;;;65.68;32.40;;;;;;;1.40;78.96;101439.22;1085972;54;20040;-79
2022/01/26 01:44:36;;;;;;;59.33;32.28;;;;;;;1.30;79.29;101443.06;1086142;54;20134;-78
2022/01/26 01:45:43;;;;;;;63.45;33.60;;;;;;;1.11;79.77;101442.81;1085997;54;20030;-78
2022/01/26 01:46:48;;;;;;;63.20;33.25;;;;;;;1.04;80.23;101435.09;1085964;54;20035;-79
2022/01/26 01:47:50;;;;;;;66.78;34.05;;;;;;;0.94;80.31;101444.25;1086123;54;20026;-79
2022/01/26 01:48:54;;;;;;;62.13;33.80;;;;;;;1.00;80.44;101436.13;1086154;54;20050;-79
2022/01/26 01:49:56;;;;;;;57.40;30.20;;;;;;;1.22;79.72;101438.91;1085890;54;20061;-78
2022/01/26 01:51:09;;;;;;;56.30;31.00;;;;;;;1.14;79.83;101435.69;1086253;54;20061;-78
2022/01/26 01:52:14;;;;;;;52.60;28.50;;;;;;;1.33;79.46;101440.34;1086073;54;20026;-79
2022/01/26 01:53:28;;;;;;;54.13;28.17;;;;;;;1.47;79.05;101434.59;1085757;54;20061;-79
2022/01/26 01:54:33;;;;;;;60.60;29.48;;;;;;;1.19;79.36;101433.75;1085937;54;20058;-79
2022/01/26 01:55:38;;;;;;;64.55;34.70;;;;;;;1.05;80.22;101435.97;1086065;54;20577;-79
2022/01/26 01:56:43;;;;;;;65.82;35.30;;;;;;;0.95;80.73;101432.75;1085872;54;20042;-78
2022/01/26 01:57:45;;;;;;;65.72;35.00;;;;;;;1.12;80.53;101432.22;1085951;54;20588;-79
2022/01/26 01:58:49;;;;;;;65.82;34.97;;;;;;;1.30;79.96;101433.41;1085830;54;20038;-79
2022/01/26 01:59:51;;;;;;;63.03;33.67;;;;;;;1.22;79.97;101427.53;1085847;54;20034;-78
2022/01/26 02:00:56;;;;;;;61.67;31.92;;;;;;;1.36;79.82;101434.97;1085744;54;20045;-79
2022/01/26 02:01:59;;;;;;;65.28;34.42;;;;;;;1.27;80.02;101433.50;1085853;54;20658;-78
2022/01/26 02:03:03;;;;;;;68.97;36.55;;;;;;;1.28;79.92;101437.84;1085941;54;20041;-79
2022/01/26 02:04:05;;;;;;;63.13;34.13;;;;;;;1.34;79.62;101432.38;1085471;46;20073;-79
2022/01/26 02:05:09;;;;;;;62.40;32.78;;;;;;;1.42;79.59;101433.91;1085966;54;20043;-79
2022/01/26 02:06:14;;;;;;;57.63;29.60;;;;;;;1.53;79.45;101432.63;1085799;54;20034;-80
2022/01/26 02:07:18;;;;;;;64.95;32.78;;;;;;;1.31;79.63;101436.88;1086738;47;20090;-79
2022/01/26 02:08:20;;;;;;;68.15;34.53;;;;;;;1.23;79.93;101440.66;1085908;54;20035;-78
2022/01/26 02:09:24;;;;;;;64.97;32.67;;;;;;;1.01;80.49;101435.22;1085819;54;20034;-79
2022/01/26 02:10:28;;;;;;;62.17;32.53;;;;;;;0.98;80.72;101434.47;1085870;54;20073;-79
2022/01/26 02:11:32;;;;;;;57.75;29.38;;;;;;;1.18;80.28;101437.28;1085775;54;20065;-79
2022/01/26 02:12:37;;;;;;;64.25;31.73;;;;;;;1.22;80.01;101432.81;1085842;54;20042;-78
2022/01/26 02:13:49;;;;;;;56.80;30.17;;;;;;;1.34;79.67;101431.53;1085938;54;20068;-78
2022/01/26 02:14:51;;;;;;;61.45;32.30;;;;;;;1.20;79.97;101438.09;1085294;54;20038;-79
2022/01/26 02:16:04;;;;;;;71.35;36.35;;;;;;;1.11;80.38;101432.28;1085092;54;20061;-79
2022/01/26 02:17:16;;;;;;;63.97;32.70;;;;;;;1.14;80.43;101437.44;1085064;54;20110;-78
2022/01/26 02:18:35;;;;;;;62.03;31.55;;;;;;;1.28;79.90;101437.84;1084799;54;20658;-78
2022/01/26 02:52:32;;;;;;;72.03;37.15;;;;;;;1.04;81.32;101434.25;1084085;54;20557;-78
2022/01/26 02:53:58;;;;;;;72.38;32.92;;;;;;;1.18;80.98;101432.03;1085423;46;20565;-79
2022/01/26 02:55:19;;;;;;;66.68;32.42;;;;;;;1.16;81.06;101436.50;1084891;54;20034;-79
2022/01/26 02:56:26;;;;;;;64.93;29.83;;;;;;;1.32;80.63;101434.22;1085288;54;20598;-79
2022/01/26 02:57:42;;;;;;;66.88;33.40;;;;;;;1.26;80.57;101434.41;1085172;54;20034;-78
2022/01/26 02:59:04;;;;;;;62.38;31.40;;;;;;;1.33;80.56;101433.28;1085411;54;20030;-79
2022/01/26 03:00:19;;;;;;;63.03;32.17;;;;;;;1.39;80.46;101433.09;1084900;54;20039;-78
2022/01/26 03:02:51;;;;;;;69.10;32.42;;;;;;;1.23;80.71;101429.22;1085068;54;20035;-79
2022/01/26 03:04:00;;;;;;;82.78;37.75;;;;;;;0.96;81.99;101431.00;1085538;54;20034;-79
2022/01/26 03:05:07;;;;;;;74.50;35.42;;;;;;;0.96;82.13;101431.00;1084749;54;20034;-79
2022/01/26 03:06:13;;;;;;;72.68;33.15;;;;;;;0.95;82.19;101430.13;1087304;54;20038;-79
2022/01/26 03:07:26;;;;;;;79.93;35.55;;;;;;;0.91;82.36;101433.78;1087525;54;20072;-78
2022/01/26 03:08:34;;;;;;;75.07;34.85;;;;;;;1.02;82.22;101438.69;1086393;54;20039;-78
2022/01/26 03:09:41;;;;;;;70.13;31.77;;;;;;;1.16;81.85;101431.22;1085031;54;20042;-78
2022/01/26 03:10:49;;;;;;;65.25;30.05;;;;;;;1.26;81.27;101434.41;1085048;54;20039;-78
2022/01/26 03:11:52;;;;;;;65.80;31.23;;;;;;;1.34;80.95;101427.09;1085383;54;20068;-78
2022/01/26 03:13:00;;;;;;;61.75;29.23;;;;;;;1.42;81.00;101426.00;1085252;54;20541;-79
2022/01/26 03:14:10;;;;;;;73.70;33.15;;;;;;;1.19;81.28;101428.47;1085330;54;20050;-79
2022/01/26 03:15:18;;;;;;;73.47;34.20;;;;;;;1.14;81.74;101426.91;1085583;54;20442;-78
2022/01/26 03:16:30;;;;;;;70.47;33.70;;;;;;;1.14;81.59;101434.81;1085261;54;20102;-78
2022/01/26 03:17:48;;;;;;;71.00;34.05;;;;;;;1.06;82.09;101432.44;1085321;54;20545;-79
2022/01/26 03:19:02;;;;;;;74.35;34.17;;;;;;;1.00;82.23;101436.13;1085415;39;20508;-78
2022/01/26 03:20:09;;;;;;;81.45;36.70;;;;;;;0.91;82.74;101429.38;1085396;54;20054;-78
2022/01/26 03:21:15;;;;;;;77.95;35.70;;;;;;;0.87;83.12;101432.16;1085311;54;20061;-79
2022/01/26 03:28:57;;;;;;;80.00;36.13;;;;;;;0.80;83.31;101436.78;1085452;54;20053;-79
2022/01/26 03:30:03;;;;;;;73.20;33.58;;;;;;;0.86;83.18;101433.06;1085840;54;20038;-78
2022/01/26 03:33:57;;;;;;;73.07;32.10;;;;;;;1.11;82.90;101434.94;1086023;54;20038;-78
2022/01/26 03:34:59;;;;;;;75.33;34.70;;;;;;;1.11;82.71;101438.41;1085901;54;20038;-79
2022/01/26 03:36:11;;;;;;;72.13;33.70;;;;;;;1.06;82.78;101438.56;1085885;54;20371;-78
2022/01/26 03:37:13;;;;;;;77.45;32.83;;;;;;;1.09;82.79;101438.47;1086043;54;20141;-78
2022/01/26 03:38:24;;;;;;;65.03;30.40;;;;;;;1.22;82.47;101433.66;1086181;46;20034;-79
2022/01/26 03:39:28;;;;;;;70.35;30.55;;;;;;;1.29;82.04;101434.31;1086645;39;20557;-81
2022/01/26 03:40:35;;;;;;;64.07;28.70;;;;;;;1.32;82.04;101431.59;1086243;54;20027;-78
2022/01/26 03:41:46;;;;;;;82.55;33.30;;;;;;;1.30;82.15;101438.69;1086246;54;20046;-78
2022/01/26 03:42:47;;;;;;;69.88;30.17;;;;;;;1.29;82.11;101429.03;1085786;54;20045;-78
2022/01/26 03:43:51;;;;;;;78.32;33.30;;;;;;;1.24;81.95;101430.97;1085940;54;20098;-78
2022/01/26 03:44:55;;;;;;;67.40;30.92;;;;;;;1.28;81.99;101432.59;1086016;54;20607;-78
2022/01/26 03:45:57;;;;;;;69.88;30.98;;;;;;;1.33;82.25;101438.56;1086030;54;20042;-78
2022/01/26 03:47:01;;;;;;;64.43;30.75;;;;;;;1.32;82.04;101436.84;1085996;54;20043;-79
2022/01/26 03:48:03;;;;;;;64.60;28.90;;;;;;;1.35;82.01;101439.38;1085779;54;20115;-78
2022/01/26 03:49:09;;;;;;;64.43;28.83;;;;;;;1.35;82.03;101435.88;1085944;54;20061;-78
2022/01/26 03:50:11;;;;;;;61.42;29.65;;;;;;;1.35;82.08;101433.25;1085734;54;20042;-78
2022/01/26 03:51:15;;;;;;;55.65;26.63;;;;;;;1.43;81.87;101440.88;1085851;46;20027;-78
2022/01/26 03:52:19;;;;;;;56.55;26.42;;;;;;;1.45;81.81;101436.44;1085874;54;20047;-78
2022/01/26 03:53:23;;;;;;;53.90;24.83;;;;;;;1.51;81.72;101433.59;1085670;54;20038;-78
2022/01/26 03:54:27;;;;;;;50.50;23.58;;;;;;;1.55;81.36;101437.84;1085693;54;20038;-78
2022/01/26 03:55:29;;;;;;;53.58;24.23;;;;;;;1.54;81.33;101439.63;1085501;54;20061;-77
2022/01/26 03:56:33;;;;;;;48.83;22.83;;;;;;;1.61;81.57;101427.06;1085611;54;20056;-78
2022/01/26 03:57:35;;;;;;;45.75;21.38;;;;;;;1.63;81.16;101441.06;1085807;46;20046;-79
2022/01/26 03:58:39;;;;;;;47.08;23.00;;;;;;;1.58;81.23;101432.47;1085456;54;20039;-79
2022/01/26 03:59:40;;;;;;;45.08;22.30;;;;;;;1.59;81.14;101425.41;1085123;54;20042;-78
2022/01/26 04:00:44;;;;;;;47.50;22.45;;;;;;;1.60;80.95;101422.75;1085533;54;20639;-79
2022/01/26 04:01:47;;;;;;;41.63;22.27;;;;;;;1.54;80.67;101423.81;1085550;54;20464;-78
2022/01/26 04:02:51;;;;;;;43.75;20.40;;;;;;;1.52;80.81;101424.75;1085881;46;20043;-78
2022/01/26 04:03:52;;;;;;;40.72;21.50;;;;;;;1.51;80.63;101425.69;1085710;54;20046;-78
2022/01/26 04:05:01;;;;;;;40.63;20.90;;;;;;;1.56;80.84;101426.38;1086011;46;20049;-79
2022/01/26 04:06:02;;;;;;;40.78;21.00;;;;;;;1.47;81.12;101422.28;1085172;47;20106;-78
2022/01/26 04:07:07;;;;;;;38.10;20.88;;;;;;;1.48;80.94;101424.00;1085746;54;20038;-77
2022/01/26 04:08:13;;;;;;;39.92;20.42;;;;;;;1.52;81.05;101424.75;1085782;54;20042;-77
2022/01/26 04:09:20;;;;;;;40.30;21.85;;;;;;;1.45;80.75;101418.84;1086096;39;20491;-78
2022/01/26 04:10:41;;;;;;;43.08;22.85;;;;;;;1.27;81.38;101414.22;1085328;54;20065;-78
2022/01/26 04:11:48;;;;;;;41.45;21.17;;;;;;;1.31;81.13;101413.19;1085204;54;20565;-78
2022/01/26 04:12:50;;;;;;;40.33;21.67;;;;;;;1.26;81.23;101417.75;1085599;46;20049;-78
2022/01/26 04:13:54;;;;;;;38.03;19.10;;;;;;;1.39;80.88;101414.66;1085358;54;20042;-78
2022/01/26 04:15:05;;;;;;;38.47;20.23;;;;;;;1.44;80.78;101421.53;1086893;39;20461;-78
2022/01/26 04:16:08;;;;;;;39.28;19.48;;;;;;;1.49;80.61;101420.47;1085420;54;20054;-79
2022/01/26 04:17:12;;;;;;;33.92;18.42;;;;;;;1.56;80.21;101421.97;1085377;47;20034;-78
2022/01/26 04:18:18;;;;;;;33.22;18.05;;;;;;;1.56;80.16;101421.13;1085196;54;20039;-77
2022/01/26 04:19:23;;;;;;;33.22;18.48;;;;;;;1.52;80.28;101427.38;1085117;54;20094;-77
2022/01/26 04:20:29;;;;;;;36.47;17.98;;;;;;;1.61;79.93;101428.88;1085182;54;20549;-78
2022/01/26 04:21:45;;;;;;;30.58;16.27;;;;;;;1.65;79.89;101431.34;1085067;54;20583;-78
2022/01/26 04:22:54;;;;;;;33.60;17.70;;;;;;;1.63;79.90;101422.63;1084952;39;20453;-77
2022/01/26 04:24:02;;;;;;;34.55;18.98;;;;;;;1.47;79.87;101424.06;1085295;54;20065;-78
2022/01/26 04:25:08;;;;;;;33.03;17.90;;;;;;;1.44;79.49;101414.50;1085387;54;20044;-78
2022/01/26 04:26:16;;;;;;;34.20;20.00;;;;;;;1.24;80.04;101408.13;1085191;54;20050;-79
2022/01/26 04:27:22;;;;;;;34.30;19.52;;;;;;;1.09;80.27;101413.88;1085185;54;20203;-77
2022/01/26 04:28:32;;;;;;;35.63;21.48;;;;;;;1.05;80.70;101415.75;1085319;54;20069;-78
2022/01/26 04:29:35;;;;;;;36.53;21.00;;;;;;;1.15;80.42;101408.44;1085301;47;20042;-79
2022/01/26 04:30:40;;;;;;;37.47;21.45;;;;;;;0.99;80.43;101418.59;1085488;54;20038;-78
2022/01/26 04:31:42;;;;;;;34.13;19.80;;;;;;;1.05;80.54;101412.28;1085343;54;20061;-78
2022/01/26 04:32:46;;;;;;;41.00;21.30;;;;;;;0.96;80.92;101423.09;1085390;54;20045;-79
2022/01/26 04:33:47;;;;;;;36.45;19.90;;;;;;;1.08;80.68;101415.66;1085819;54;20045;-79
2022/01/26 04:34:52;;;;;;;33.42;18.90;;;;;;;1.19;80.37;101420.56;1085703;54;20069;-78
2022/01/26 04:35:53;;;;;;;33.30;18.63;;;;;;;1.28;80.08;101418.53;1085632;54;20065;-78
2022/01/26 04:37:04;;;;;;;33.58;17.95;;;;;;;1.28;80.09;101424.69;1085233;54;20033;-78
2022/01/26 04:38:18;;;;;;;31.60;16.80;;;;;;;1.37;79.73;101426.16;1085564;54;20038;-78
2022/01/26 04:39:36;;;;;;;30.30;16.92;;;;;;;1.44;79.48;101424.16;1084992;54;20675;-79
2022/01/26 04:40:52;;;;;;;28.92;16.20;;;;;;;1.50;79.34;101422.19;1084923;54;20068;-78
2022/01/26 04:42:00;;;;;;;29.83;15.63;;;;;;;1.55;79.35;101424.66;1085125;54;20034;-78
2022/01/26 04:43:05;;;;;;;34.17;18.30;;;;;;;1.52;79.24;101436.19;1085521;54;20094;-78
2022/01/26 04:44:16;;;;;;;31.90;17.60;;;;;;;1.51;79.39;101423.06;1085418;54;20050;-78
2022/01/26 04:45:20;;;;;;;;;;;;;;;1.41;79.28;101422.50;1085817;47;20046;-78
2022/01/26 04:46:21;;;;;;;40.15;18.73;;;;;;;1.39;79.40;101422.56;1085645;54;19950;-78
2022/01/26 04:47:25;;;;;;;32.90;17.95;;;;;;;1.47;79.41;101418.78;1087909;39;20444;-78
2022/01/26 04:48:27;;;;;;;31.38;16.75;;;;;;;1.51;79.16;101416.00;1085485;54;20042;-78
2022/01/26 04:49:32;;;;;;;30.58;16.55;;;;;;;1.55;79.12;101416.75;1085316;54;20045;-78
2022/01/26 04:50:33;;;;;;;29.10;15.13;;;;;;;1.56;78.84;101415.84;1085428;54;20034;-79
2022/01/26 04:51:37;;;;;;;29.52;15.52;;;;;;;1.59;78.99;101418.38;1084898;54;20043;-78
2022/01/26 04:52:40;;;;;;;30.42;16.08;;;;;;;1.58;78.79;101414.03;1085377;54;20065;-78
2022/01/26 04:53:44;;;;;;;29.13;16.00;;;;;;;1.59;78.99;101414.88;1085800;54;20027;-78
2022/01/26 04:54:49;;;;;;;26.42;14.77;;;;;;;1.63;78.92;101417.34;1085885;54;20030;-78
2022/01/26 04:55:53;;;;;;;25.80;14.68;;;;;;;1.59;78.83;101418.38;1085687;54;20045;-79
2022/01/26 04:56:57;;;;;;;27.98;15.68;;;;;;;1.62;78.75;101405.06;1085740;54;20065;-78
2022/01/26 04:58:00;;;;;;;29.88;15.95;;;;;;;1.62;78.78;101418.25;1085525;54;20052;-78
2022/01/26 04:59:04;;;;;;;27.85;15.45;;;;;;;1.60;78.52;101412.19;1085786;54;20041;-79
2022/01/26 05:00:08;;;;;;;29.58;15.57;;;;;;;1.68;78.64;101409.28;1085538;54;20575;-79
2022/01/26 05:01:12;;;;;;;26.48;15.35;;;;;;;1.70;78.40;101415.34;1085146;54;20033;-78
2022/01/26 05:02:17;;;;;;;26.90;16.80;;;;;;;1.70;78.60;101421.47;1085184;47;20027;-78
2022/01/26 05:03:19;;;;;;;28.40;15.48;;;;;;;1.73;78.45;101406.47;1085327;54;20583;-77
2022/01/26 05:04:23;;;;;;;27.48;16.10;;;;;;;1.71;78.46;101415.28;1085096;54;20038;-78
2022/01/26 05:05:25;;;;;;;33.35;16.70;;;;;;;1.70;78.54;101407.44;1085405;39;20350;-78
2022/01/26 05:06:29;;;;;;;31.10;16.83;;;;;;;1.68;78.42;101410.16;1085077;54;20610;-78
2022/01/26 05:07:30;;;;;;;31.63;16.67;;;;;;;1.71;78.57;101404.75;1085210;54;20046;-78
2022/01/26 05:08:36;;;;;;;33.22;17.75;;;;;;;1.67;78.20;101400.50;1085469;39;20460;-78
2022/01/26 05:09:40;;;;;;;35.53;18.58;;;;;;;1.60;78.67;101395.50;1084963;54;20061;-78
2022/01/26 05:10:44;;;;;;;32.22;17.70;;;;;;;1.63;78.74;101405.94;1084596;54;20464;-78
2022/01/26 05:11:53;;;;;;;33.50;17.55;;;;;;;1.60;78.62;101406.91;1084877;54;20060;-78
2022/01/26 05:12:55;;;;;;;36.22;19.00;;;;;;;1.45;78.72;101399.53;1084983;54;20898;-79
2022/01/26 05:13:59;;;;;;;35.08;18.85;;;;;;;1.29;79.15;101402.69;1084977;54;20110;-78
2022/01/26 05:15:01;;;;;;;36.35;19.92;;;;;;;1.09;79.58;101406.84;1086112;39;20508;-79
2022/01/26 05:16:08;;;;;;;31.15;18.73;;;;;;;1.09;79.96;101393.69;1086232;54;20042;-78
2022/01/26 05:17:12;;;;;;;33.63;19.25;;;;;;;1.27;79.63;101399.25;1087613;39;20567;-79
2022/01/26 05:18:16;;;;;;;36.55;19.27;;;;;;;1.28;79.52;101400.09;1086124;54;20058;-78
2022/01/26 05:19:20;;;;;;;32.78;18.05;;;;;;;1.34;79.15;101395.47;1086245;54;20050;-79
2022/01/26 05:20:21;;;;;;;30.17;17.10;;;;;;;1.40;78.95;101399.69;1086009;54;20044;-78
2022/01/26 05:21:26;;;;;;;28.48;15.10;;;;;;;1.46;78.70;101411.78;1085859;54;20106;-79
2022/01/26 05:22:30;;;;;;;33.05;17.15;;;;;;;1.49;78.81;101404.63;1085192;54;20034;-78
2022/01/26 05:23:34;;;;;;;29.65;16.00;;;;;;;1.50;78.81;101408.16;1085095;47;20034;-78
2022/01/26 05:24:39;;;;;;;31.80;16.52;;;;;;;1.48;78.74;101418.72;1085380;54;20038;-79
2022/01/26 05:25:41;;;;;;;32.67;16.77;;;;;;;1.50;78.65;101416.91;1086320;39;20453;-79
2022/01/26 05:26:45;;;;;;;32.55;17.85;;;;;;;1.54;78.44;101418.53;1085499;39;20364;-78
2022/01/26 05:27:49;;;;;;;36.38;18.08;;;;;;;1.33;79.02;101420.09;1086897;54;20046;-77
2022/01/26 05:28:53;;;;;;;30.75;16.95;;;;;;;1.44;78.92;101421.53;1088237;46;20034;-78
2022/01/26 05:29:55;;;;;;;33.75;17.55;;;;;;;1.42;78.97;101416.31;1087748;54;20038;-78
2022/01/26 05:30:59;;;;;;;34.72;18.33;;;;;;;1.30;79.18;101414.09;1087499;46;20556;-78
2022/01/26 05:32:01;;;;;;;37.75;19.40;;;;;;;1.11;79.55;101416.47;1085111;54;20647;-78
2022/01/26 05:33:05;;;;;;;34.85;18.20;;;;;;;1.08;79.79;101413.03;1085244;54;20034;-78
2022/01/26 05:34:09;;;;;;;31.92;16.15;;;;;;;1.24;79.67;101415.16;1085284;54;20039;-78
2022/01/26 05:35:11;;;;;;;30.65;16.27;;;;;;;1.26;79.51;101413.34;1085215;54;20038;-78
2022/01/26 05:36:15;;;;;;;31.88;16.70;;;;;;;1.32;79.40;101405.25;1084956;54;20038;-78
2022/01/26 05:37:17;;;;;;;30.02;17.13;;;;;;;1.38;79.11;101412.94;1085056;54;20034;-78
2022/01/26 05:38:21;;;;;;;32.85;16.73;;;;;;;1.38;79.14;101415.56;1085262;54;20057;-77
2022/01/26 05:39:23;;;;;;;27.20;15.43;;;;;;;1.46;78.85;101412.69;1085140;54;20038;-78
2022/01/26 05:40:27;;;;;;;30.13;16.40;;;;;;;1.48;78.76;101415.25;1085849;39;20456;-78
2022/01/26 05:41:29;;;;;;;35.65;18.45;;;;;;;1.43;78.94;101415.41;1085520;47;20552;-78
2022/01/26 05:42:35;;;;;;;27.95;15.95;;;;;;;1.42;78.88;101420.75;1085106;54;20699;-78
2022/01/26 05:43:42;;;;;;;33.35;17.77;;;;;;;1.39;78.73;101419.03;1084607;54;20073;-78
2022/01/26 05:44:44;;;;;;;30.75;15.55;;;;;;;1.40;78.75;101416.38;1085008;54;20062;-78
2022/01/26 05:45:51;;;;;;;31.33;15.88;;;;;;;1.43;78.74;101420.69;1084872;54;20473;-79
2022/01/26 05:46:56;;;;;;;31.42;15.20;;;;;;;1.43;78.76;101427.72;1085222;54;20584;-78
2022/01/26 05:47:57;;;;;;;31.48;17.48;;;;;;;1.40;78.66;101424.28;1085154;54;20035;-78
2022/01/26 05:49:02;;;;;;;29.58;14.98;;;;;;;1.41;78.92;101425.13;1085565;47;20040;-77
2022/01/26 05:50:04;;;;;;;32.15;16.48;;;;;;;1.42;78.72;101418.94;1085170;54;20046;-78
2022/01/26 05:51:10;;;;;;;28.73;14.93;;;;;;;1.43;78.62;101411.88;1085376;31;20486;-78
2022/01/26 05:52:11;;;;;;;30.30;16.92;;;;;;;1.13;79.34;101423.41;1085044;54;20034;-78
2022/01/26 05:53:17;;;;;;;32.92;17.25;;;;;;;1.08;79.47;101420.94;1085114;54;20161;-78
2022/01/26 05:54:21;;;;;;;34.10;16.80;;;;;;;1.16;79.72;101425.09;1085123;39;20405;-78
2022/01/26 05:55:23;;;;;;;33.03;17.52;;;;;;;1.09;79.62;101416.50;1085022;54;20042;-78
2022/01/26 05:56:29;;;;;;;34.10;16.98;;;;;;;1.15;79.60;101418.09;1085148;54;20054;-78
2022/01/26 05:57:30;;;;;;;31.42;16.75;;;;;;;1.26;79.35;101410.69;1084974;54;20065;-78
2022/01/26 05:58:34;;;;;;;31.98;15.80;;;;;;;1.33;79.33;101404.28;1084766;54;20057;-78
2022/01/26 05:59:41;;;;;;;26.88;14.68;;;;;;;1.38;78.99;101409.41;1085003;54;20046;-77
2022/01/26 06:00:44;;;;;;;30.20;16.58;;;;;;;1.25;78.84;101406.34;1085391;54;20628;-78
2022/01/26 06:01:48;;;;;;;31.17;17.13;;;;;;;1.27;78.90;101393.13;1085071;54;20061;-78
2022/01/26 06:02:50;;;;;;;32.05;16.58;;;;;;;1.28;79.07;101397.47;1085305;54;20607;-78
2022/01/26 06:03:54;;;;;;;28.08;16.05;;;;;;;1.13;79.40;101391.81;1084983;54;20042;-78
2022/01/26 06:04:55;;;;;;;28.77;15.50;;;;;;;1.20;79.24;101395.09;1085773;54;20038;-78